sensor_id;sensor_type;location;lat;lon;timestamp;pressure;altitude;pressure_sealevel;temperature;humidity
57050;BME280;42935;50.966;16.992;2023-02-04T00:02:57;100960.70;;;2.47;100.00
57050;BME280;42935;50.966;16.992;2023-02-04T00:06:02;100958.18;;;2.42;100.00
57050;BME280;42935;50.966;16.992;2023-02-04T00:09:10;100982.91;;;2.32;100.00
57050;BME280;42935;50.966;16.992;2023-02-04T00:12:16;101001.16;;;2.13;100.00
57050;BME280;42935;50.966;16.992;2023-02-04T00:15:26;100990.77;;;1.93;100.00
57050;BME280;42935;50.966;16.992;2023-02-04T00:18:36;100961.65;;;1.59;100.00
57050;BME280;42935;50.966;16.992;2023-02-04T00:21:43;100983.02;;;1.68;100.00
57050;BME280;42935;50.966;16.992;2023-02-04T00:24:50;101015.23;;;1.78;100.00
57050;BME280;42935;50.966;16.992;2023-02-04T00:28:03;100998.00;;;1.68;100.00
57050;BME280;42935;50.966;16.992;2023-02-04T00:31:12;101012.32;;;1.74;100.00
57050;BME280;42935;50.966;16.992;2023-02-04T00:34:19;101026.32;;;1.74;100.00
57050;BME280;42935;50.966;16.992;2023-02-04T00:37:26;101040.25;;;1.78;100.00
57050;BME280;42935;50.966;16.992;2023-02-04T00:40:34;101041.03;;;1.77;100.00
57050;BME280;42935;50.966;16.992;2023-02-04T00:43:43;101065.17;;;1.84;100.00
57050;BME280;42935;50.966;16.992;2023-02-04T00:46:50;101069.90;;;1.77;100.00
57050;BME280;42935;50.966;16.992;2023-02-04T00:49:57;101078.19;;;1.65;100.00
57050;BME280;42935;50.966;16.992;2023-02-04T00:53:06;101062.54;;;1.61;100.00
57050;BME280;42935;50.966;16.992;2023-02-04T00:56:16;101091.18;;;1.68;100.00
57050;BME280;42935;50.966;16.992;2023-02-04T00:59:25;101102.17;;;1.59;100.00
57050;BME280;42935;50.966;16.992;2023-02-04T01:02:30;101110.60;;;1.37;100.00
57050;BME280;42935;50.966;16.992;2023-02-04T01:05:37;101137.52;;;1.28;100.00
57050;BME280;42935;50.966;16.992;2023-02-04T01:08:46;101130.93;;;1.08;100.00
57050;BME280;42935;50.966;16.992;2023-02-04T01:11:51;101130.45;;;1.08;100.00
57050;BME280;42935;50.966;16.992;2023-02-04T01:15:00;101136.55;;;1.02;100.00
57050;BME280;42935;50.966;16.992;2023-02-04T01:18:09;101142.15;;;0.99;100.00
57050;BME280;42935;50.966;16.992;2023-02-04T01:21:18;101143.76;;;0.96;100.00
57050;BME280;42935;50.966;16.992;2023-02-04T01:24:25;101156.85;;;0.92;100.00
57050;BME280;42935;50.966;16.992;2023-02-04T01:27:34;101176.59;;;0.87;100.00
57050;BME280;42935;50.966;16.992;2023-02-04T01:30:39;101184.38;;;0.69;100.00
57050;BME280;42935;50.966;16.992;2023-02-04T01:33:47;101153.37;;;0.44;100.00
57050;BME280;42935;50.966;16.992;2023-02-04T01:36:56;101184.62;;;0.62;100.00
57050;BME280;42935;50.966;16.992;2023-02-04T01:40:03;101189.83;;;0.58;100.00
57050;BME280;42935;50.966;16.992;2023-02-04T01:43:09;101215.34;;;0.58;100.00
57050;BME280;42935;50.966;16.992;2023-02-04T01:46:16;101247.09;;;0.42;100.00
57050;BME280;42935;50.966;16.992;2023-02-04T01:49:21;101256.92;;;0.33;100.00
57050;BME280;42935;50.966;16.992;2023-02-04T01:52:35;101267.22;;;0.23;100.00
57050;BME280;42935;50.966;16.992;2023-02-04T01:55:43;101311.37;;;0.08;100.00
57050;BME280;42935;50.966;16.992;2023-02-04T01:58:50;101357.55;;;0.04;100.00
57050;BME280;42935;50.966;16.992;2023-02-04T02:01:57;101376.02;;;-0.09;100.00
57050;BME280;42935;50.966;16.992;2023-02-04T02:05:12;101392.22;;;-0.15;100.00
57050;BME280;42935;50.966;16.992;2023-02-04T02:08:22;101393.61;;;-0.37;100.00
57050;BME280;42935;50.966;16.992;2023-02-04T02:11:35;101421.71;;;-0.34;100.00
57050;BME280;42935;50.966;16.992;2023-02-04T02:14:44;101449.25;;;-0.39;100.00
57050;BME280;42935;50.966;16.992;2023-02-04T02:17:57;101468.84;;;-0.44;100.00
57050;BME280;42935;50.966;16.992;2023-02-04T02:21:13;101503.67;;;-0.45;100.00
57050;BME280;42935;50.966;16.992;2023-02-04T02:24:28;101526.09;;;-0.49;100.00
57050;BME280;42935;50.966;16.992;2023-02-04T02:27:43;101550.64;;;-0.54;100.00
57050;BME280;42935;50.966;16.992;2023-02-04T02:30:52;101554.36;;;-0.64;100.00
57050;BME280;42935;50.966;16.992;2023-02-04T02:34:03;101578.12;;;-0.65;100.00
57050;BME280;42935;50.966;16.992;2023-02-04T02:37:10;101590.16;;;-0.68;100.00
57050;BME280;42935;50.966;16.992;2023-02-04T02:40:20;101622.99;;;-0.66;100.00
57050;BME280;42935;50.966;16.992;2023-02-04T02:43:31;101655.70;;;-0.72;100.00
57050;BME280;42935;50.966;16.992;2023-02-04T02:46:42;101664.95;;;-0.80;100.00
57050;BME280;42935;50.966;16.992;2023-02-04T02:49:51;101702.37;;;-0.76;100.00
57050;BME280;42935;50.966;16.992;2023-02-04T02:53:13;101718.10;;;-0.74;100.00
57050;BME280;42935;50.966;16.992;2023-02-04T02:56:21;101737.12;;;-0.76;100.00
57050;BME280;42935;50.966;16.992;2023-02-04T02:59:30;101752.51;;;-0.85;100.00
57050;BME280;42935;50.966;16.992;2023-02-04T03:02:40;101762.97;;;-0.87;100.00
57050;BME280;42935;50.966;16.992;2023-02-04T03:05:48;101790.16;;;-0.91;100.00
57050;BME280;42935;50.966;16.992;2023-02-04T03:08:57;101805.80;;;-0.84;100.00
57050;BME280;42935;50.966;16.992;2023-02-04T03:12:17;101843.14;;;-0.79;100.00
57050;BME280;42935;50.966;16.992;2023-02-04T03:15:23;101862.13;;;-0.84;100.00
57050;BME280;42935;50.966;16.992;2023-02-04T03:18:32;101862.47;;;-1.02;100.00
57050;BME280;42935;50.966;16.992;2023-02-04T03:21:42;101886.48;;;-0.91;100.00
57050;BME280;42935;50.966;16.992;2023-02-04T03:24:49;101915.77;;;-0.88;100.00
57050;BME280;42935;50.966;16.992;2023-02-04T03:27:58;101938.54;;;-0.87;100.00
57050;BME280;42935;50.966;16.992;2023-02-04T03:31:03;101957.22;;;-0.84;100.00
57050;BME280;42935;50.966;16.992;2023-02-04T03:34:13;101979.09;;;-0.83;100.00
57050;BME280;42935;50.966;16.992;2023-02-04T03:37:22;101985.54;;;-0.92;100.00
57050;BME280;42935;50.966;16.992;2023-02-04T03:40:33;102005.54;;;-0.92;100.00
57050;BME280;42935;50.966;16.992;2023-02-04T03:43:40;102021.93;;;-1.02;100.00
57050;BME280;42935;50.966;16.992;2023-02-04T03:46:47;102027.05;;;-1.12;100.00
57050;BME280;42935;50.966;16.992;2023-02-04T03:49:54;102056.91;;;-1.15;100.00
57050;BME280;42935;50.966;16.992;2023-02-04T03:53:01;102074.23;;;-1.10;100.00
57050;BME280;42935;50.966;16.992;2023-02-04T03:56:08;102072.01;;;-1.19;100.00
57050;BME280;42935;50.966;16.992;2023-02-04T03:59:18;102099.73;;;-1.11;100.00
57050;BME280;42935;50.966;16.992;2023-02-04T04:02:27;102115.37;;;-1.20;100.00
57050;BME280;42935;50.966;16.992;2023-02-04T04:05:32;102105.41;;;-1.35;100.00
57050;BME280;42935;50.966;16.992;2023-02-04T04:08:39;102159.43;;;-1.21;100.00
57050;BME280;42935;50.966;16.992;2023-02-04T04:11:48;102155.73;;;-1.29;100.00
57050;BME280;42935;50.966;16.992;2023-02-04T04:14:55;102173.77;;;-1.27;100.00
57050;BME280;42935;50.966;16.992;2023-02-04T04:18:00;102166.15;;;-1.43;100.00
57050;BME280;42935;50.966;16.992;2023-02-04T04:21:07;102202.16;;;-1.24;100.00
57050;BME280;42935;50.966;16.992;2023-02-04T04:24:16;102204.78;;;-1.33;100.00
57050;BME280;42935;50.966;16.992;2023-02-04T04:27:33;102222.52;;;-1.27;100.00
57050;BME280;42935;50.966;16.992;2023-02-04T04:30:40;102210.74;;;-1.40;100.00
57050;BME280;42935;50.966;16.992;2023-02-04T04:33:53;102236.40;;;-1.31;100.00
57050;BME280;42935;50.966;16.992;2023-02-04T04:37:02;102223.14;;;-1.45;100.00
57050;BME280;42935;50.966;16.992;2023-02-04T04:40:11;102254.15;;;-1.34;100.00
57050;BME280;42935;50.966;16.992;2023-02-04T04:43:21;102270.48;;;-1.38;100.00
57050;BME280;42935;50.966;16.992;2023-02-04T04:46:30;102276.97;;;-1.41;100.00
57050;BME280;42935;50.966;16.992;2023-02-04T04:49:44;102301.98;;;-1.37;100.00
57050;BME280;42935;50.966;16.992;2023-02-04T04:52:53;102306.67;;;-1.40;100.00
57050;BME280;42935;50.966;16.992;2023-02-04T04:56:00;102295.24;;;-1.44;100.00
57050;BME280;42935;50.966;16.992;2023-02-04T04:59:05;102319.12;;;-1.45;100.00
57050;BME280;42935;50.966;16.992;2023-02-04T05:02:10;102339.30;;;-1.41;100.00
57050;BME280;42935;50.966;16.992;2023-02-04T05:05:19;102323.03;;;-1.56;100.00
57050;BME280;42935;50.966;16.992;2023-02-04T05:08:24;102350.26;;;-1.51;100.00
57050;BME280;42935;50.966;16.992;2023-02-04T05:11:41;102352.19;;;-1.62;100.00
57050;BME280;42935;50.966;16.992;2023-02-04T05:14:54;102375.76;;;-1.56;100.00
57050;BME280;42935;50.966;16.992;2023-02-04T05:18:03;102401.13;;;-1.46;100.00
57050;BME280;42935;50.966;16.992;2023-02-04T05:21:11;102419.77;;;-1.48;100.00
57050;BME280;42935;50.966;16.992;2023-02-04T05:24:20;102427.08;;;-1.48;100.00
57050;BME280;42935;50.966;16.992;2023-02-04T05:27:33;102428.91;;;-1.52;100.00
57050;BME280;42935;50.966;16.992;2023-02-04T05:30:43;102443.68;;;-1.45;100.00
57050;BME280;42935;50.966;16.992;2023-02-04T05:33:52;102439.08;;;-1.55;100.00
57050;BME280;42935;50.966;16.992;2023-02-04T05:37:01;102459.48;;;-1.50;100.00
57050;BME280;42935;50.966;16.992;2023-02-04T05:40:10;102450.52;;;-1.60;100.00
57050;BME280;42935;50.966;16.992;2023-02-04T05:43:22;102471.63;;;-1.61;100.00
57050;BME280;42935;50.966;16.992;2023-02-04T05:46:31;102489.50;;;-1.55;100.00
57050;BME280;42935;50.966;16.992;2023-02-04T05:49:44;102496.16;;;-1.62;100.00
57050;BME280;42935;50.966;16.992;2023-02-04T05:52:53;102511.59;;;-1.54;100.00
57050;BME280;42935;50.966;16.992;2023-02-04T05:56:03;102520.63;;;-1.51;100.00
57050;BME280;42935;50.966;16.992;2023-02-04T05:59:11;102508.70;;;-1.62;100.00
57050;BME280;42935;50.966;16.992;2023-02-04T06:02:18;102518.86;;;-1.64;100.00
57050;BME280;42935;50.966;16.992;2023-02-04T06:05:28;102510.11;;;-1.72;100.00
57050;BME280;42935;50.966;16.992;2023-02-04T06:08:35;102544.12;;;-1.59;100.00
57050;BME280;42935;50.966;16.992;2023-02-04T06:11:42;102568.51;;;-1.53;100.00
57050;BME280;42935;50.966;16.992;2023-02-04T06:14:59;102571.39;;;-1.60;100.00
57050;BME280;42935;50.966;16.992;2023-02-04T06:18:08;102583.91;;;-1.58;100.00
57050;BME280;42935;50.966;16.992;2023-02-04T06:21:15;102606.45;;;-1.46;100.00
57050;BME280;42935;50.966;16.992;2023-02-04T06:24:22;102612.09;;;-1.46;100.00
57050;BME280;42935;50.966;16.992;2023-02-04T06:27:29;102623.20;;;-1.46;100.00
57050;BME280;42935;50.966;16.992;2023-02-04T06:30:38;102635.66;;;-1.49;100.00
57050;BME280;42935;50.966;16.992;2023-02-04T06:33:45;102636.59;;;-1.54;100.00
57050;BME280;42935;50.966;16.992;2023-02-04T06:37:03;102661.79;;;-1.45;100.00
57050;BME280;42935;50.966;16.992;2023-02-04T06:40:12;102674.26;;;-1.55;100.00
57050;BME280;42935;50.966;16.992;2023-02-04T06:43:19;102667.86;;;-1.68;100.00
57050;BME280;42935;50.966;16.992;2023-02-04T06:46:32;102699.93;;;-1.58;100.00
57050;BME280;42935;50.966;16.992;2023-02-04T06:49:41;102721.20;;;-1.52;100.00
57050;BME280;42935;50.966;16.992;2023-02-04T06:52:50;102732.55;;;-1.53;100.00
57050;BME280;42935;50.966;16.992;2023-02-04T06:55:59;102726.58;;;-1.67;100.00
57050;BME280;42935;50.966;16.992;2023-02-04T06:59:06;102755.04;;;-1.60;100.00
57050;BME280;42935;50.966;16.992;2023-02-04T07:02:17;102773.14;;;-1.63;100.00
57050;BME280;42935;50.966;16.992;2023-02-04T07:05:26;102789.02;;;-1.63;100.00
57050;BME280;42935;50.966;16.992;2023-02-04T07:08:37;102791.42;;;-1.71;100.00
57050;BME280;42935;50.966;16.992;2023-02-04T07:11:45;102811.03;;;-1.61;100.00
57050;BME280;42935;50.966;16.992;2023-02-04T07:14:55;102818.70;;;-1.72;100.00
57050;BME280;42935;50.966;16.992;2023-02-04T07:18:02;102827.20;;;-1.66;100.00
57050;BME280;42935;50.966;16.992;2023-02-04T07:21:07;102826.83;;;-1.74;100.00
57050;BME280;42935;50.966;16.992;2023-02-04T07:24:12;102859.85;;;-1.61;100.00
57050;BME280;42935;50.966;16.992;2023-02-04T07:27:19;102850.99;;;-1.76;100.00
57050;BME280;42935;50.966;16.992;2023-02-04T07:30:28;102855.10;;;-1.78;100.00
57050;BME280;42935;50.966;16.992;2023-02-04T07:33:37;102862.46;;;-1.78;100.00
57050;BME280;42935;50.966;16.992;2023-02-04T07:36:44;102878.36;;;-1.78;100.00
57050;BME280;42935;50.966;16.992;2023-02-04T07:39:51;102866.32;;;-1.87;100.00
57050;BME280;42935;50.966;16.992;2023-02-04T07:43:00;102892.12;;;-1.66;100.00
57050;BME280;42935;50.966;16.992;2023-02-04T07:46:09;102885.92;;;-1.73;100.00
57050;BME280;42935;50.966;16.992;2023-02-04T07:49:14;102876.52;;;-1.82;100.00
57050;BME280;42935;50.966;16.992;2023-02-04T07:52:23;102903.25;;;-1.59;100.00
57050;BME280;42935;50.966;16.992;2023-02-04T07:55:33;102894.51;;;-1.71;100.00
57050;BME280;42935;50.966;16.992;2023-02-04T07:58:42;102899.23;;;-1.79;100.00
57050;BME280;42935;50.966;16.992;2023-02-04T08:01:54;102910.14;;;-1.72;100.00
57050;BME280;42935;50.966;16.992;2023-02-04T08:04:59;102896.40;;;-1.71;100.00
57050;BME280;42935;50.966;16.992;2023-02-04T08:08:08;102904.73;;;-1.74;100.00
57050;BME280;42935;50.966;16.992;2023-02-04T08:11:17;102896.66;;;-1.72;100.00
57050;BME280;42935;50.966;16.992;2023-02-04T08:14:26;102909.46;;;-1.60;100.00
57050;BME280;42935;50.966;16.992;2023-02-04T08:17:33;102909.36;;;-1.65;100.00
57050;BME280;42935;50.966;16.992;2023-02-04T08:20:43;102908.64;;;-1.56;100.00
57050;BME280;42935;50.966;16.992;2023-02-04T08:23:50;102903.09;;;-1.58;100.00
57050;BME280;42935;50.966;16.992;2023-02-04T08:27:06;102924.07;;;-1.51;100.00
57050;BME280;42935;50.966;16.992;2023-02-04T08:30:13;102923.68;;;-1.44;100.00
57050;BME280;42935;50.966;16.992;2023-02-04T08:33:53;102911.03;;;-1.49;100.00
57050;BME280;42935;50.966;16.992;2023-02-04T08:36:58;102916.03;;;-1.45;100.00
57050;BME280;42935;50.966;16.992;2023-02-04T08:40:05;102902.70;;;-1.37;100.00
57050;BME280;42935;50.966;16.992;2023-02-04T08:43:11;102915.52;;;-1.38;100.00
57050;BME280;42935;50.966;16.992;2023-02-04T08:46:18;102941.37;;;-1.26;100.00
57050;BME280;42935;50.966;16.992;2023-02-04T08:49:23;102936.76;;;-1.30;100.00
57050;BME280;42935;50.966;16.992;2023-02-04T08:52:34;102955.30;;;-1.24;100.00
57050;BME280;42935;50.966;16.992;2023-02-04T08:55:46;102949.07;;;-1.19;100.00
57050;BME280;42935;50.966;16.992;2023-02-04T08:58:55;102956.53;;;-1.19;100.00
57050;BME280;42935;50.966;16.992;2023-02-04T09:02:03;102971.05;;;-1.20;100.00
57050;BME280;42935;50.966;16.992;2023-02-04T09:05:10;102965.54;;;-1.15;100.00
57050;BME280;42935;50.966;16.992;2023-02-04T09:08:15;102974.59;;;-0.99;100.00
57050;BME280;42935;50.966;16.992;2023-02-04T09:11:22;102980.17;;;-0.84;100.00
57050;BME280;42935;50.966;16.992;2023-02-04T09:14:31;102986.48;;;-0.78;99.74
57050;BME280;42935;50.966;16.992;2023-02-04T09:17:36;102990.28;;;-0.59;100.00
57050;BME280;42935;50.966;16.992;2023-02-04T09:20:47;103000.48;;;-0.50;99.61
57050;BME280;42935;50.966;16.992;2023-02-04T09:23:56;102984.16;;;-0.49;97.71
57050;BME280;42935;50.966;16.992;2023-02-04T09:27:07;103001.58;;;-0.52;99.82
57050;BME280;42935;50.966;16.992;2023-02-04T09:30:16;102988.13;;;-0.57;100.00
57050;BME280;42935;50.966;16.992;2023-02-04T09:33:23;103000.77;;;-0.52;100.00
57050;BME280;42935;50.966;16.992;2023-02-04T09:36:30;102999.05;;;-0.50;100.00
57050;BME280;42935;50.966;16.992;2023-02-04T09:39:46;102999.70;;;-0.63;100.00
57050;BME280;42935;50.966;16.992;2023-02-04T09:42:51;103010.03;;;-0.44;100.00
57050;BME280;42935;50.966;16.992;2023-02-04T09:45:59;103023.29;;;-0.47;100.00
57050;BME280;42935;50.966;16.992;2023-02-04T09:49:09;103011.95;;;-0.42;100.00
57050;BME280;42935;50.966;16.992;2023-02-04T09:52:17;103017.51;;;-0.46;100.00
57050;BME280;42935;50.966;16.992;2023-02-04T09:55:33;103016.26;;;-0.47;100.00
57050;BME280;42935;50.966;16.992;2023-02-04T09:58:43;103010.67;;;-0.51;100.00
57050;BME280;42935;50.966;16.992;2023-02-04T10:01:59;103029.39;;;-0.30;100.00
57050;BME280;42935;50.966;16.992;2023-02-04T10:05:15;103025.07;;;-0.25;100.00
57050;BME280;42935;50.966;16.992;2023-02-04T10:08:30;102964.21;;;-0.64;100.00
57050;BME280;42935;50.966;16.992;2023-02-04T10:11:39;103015.33;;;-0.10;100.00
57050;BME280;42935;50.966;16.992;2023-02-04T10:14:51;103039.54;;;-0.09;100.00
57050;BME280;42935;50.966;16.992;2023-02-04T10:18:06;103047.28;;;-0.24;100.00
57050;BME280;42935;50.966;16.992;2023-02-04T10:24:37;103059.23;;;-0.11;100.00
57050;BME280;42935;50.966;16.992;2023-02-04T10:27:56;103080.03;;;-0.03;100.00
57050;BME280;42935;50.966;16.992;2023-02-04T10:31:03;103074.98;;;-0.13;100.00
57050;BME280;42935;50.966;16.992;2023-02-04T10:34:31;103071.61;;;-0.21;100.00
57050;BME280;42935;50.966;16.992;2023-02-04T10:37:32;103077.20;;;-0.20;100.00
57050;BME280;42935;50.966;16.992;2023-02-04T10:40:37;103094.13;;;-0.21;100.00
57050;BME280;42935;50.966;16.992;2023-02-04T10:43:44;103098.42;;;-0.28;100.00
57050;BME280;42935;50.966;16.992;2023-02-04T10:50:16;103112.87;;;-0.35;100.00
57050;BME280;42935;50.966;16.992;2023-02-04T10:53:24;103112.84;;;-0.48;100.00
57050;BME280;42935;50.966;16.992;2023-02-04T10:56:40;103108.91;;;-0.62;100.00
57050;BME280;42935;50.966;16.992;2023-02-04T10:59:52;103100.50;;;-0.52;100.00
57050;BME280;42935;50.966;16.992;2023-02-04T11:06:23;103101.24;;;-0.16;100.00
57050;BME280;42935;50.966;16.992;2023-02-04T11:09:36;103105.56;;;-0.14;100.00
57050;BME280;42935;50.966;16.992;2023-02-04T11:22:44;103085.02;;;-0.08;100.00
57050;BME280;42935;50.966;16.992;2023-02-04T11:36:05;103118.01;;;0.36;96.47
57050;BME280;42935;50.966;16.992;2023-02-04T11:39:15;103122.05;;;0.39;94.97
57050;BME280;42935;50.966;16.992;2023-02-04T11:42:31;103118.82;;;0.32;93.93
57050;BME280;42935;50.966;16.992;2023-02-04T11:45:42;103128.45;;;0.44;88.70
57050;BME280;42935;50.966;16.992;2023-02-04T11:48:56;103131.73;;;0.12;83.84
57050;BME280;42935;50.966;16.992;2023-02-04T11:52:13;103142.12;;;-0.00;79.41
57050;BME280;42935;50.966;16.992;2023-02-04T11:55:22;103141.49;;;-0.05;78.07
57050;BME280;42935;50.966;16.992;2023-02-04T11:58:31;103128.99;;;-0.24;77.63
57050;BME280;42935;50.966;16.992;2023-02-04T12:01:40;103144.59;;;-0.22;78.38
57050;BME280;42935;50.966;16.992;2023-02-04T12:04:55;103107.84;;;-0.53;78.83
57050;BME280;42935;50.966;16.992;2023-02-04T12:08:23;103153.86;;;-0.22;80.67
57050;BME280;42935;50.966;16.992;2023-02-04T12:11:28;103125.80;;;-0.48;82.66
57050;BME280;42935;50.966;16.992;2023-02-04T12:14:38;103146.53;;;-0.43;83.05
57050;BME280;42935;50.966;16.992;2023-02-04T12:17:46;103163.59;;;-0.40;81.08
57050;BME280;42935;50.966;16.992;2023-02-04T12:20:50;103160.92;;;-0.39;82.57
57050;BME280;42935;50.966;16.992;2023-02-04T12:23:55;103148.61;;;-0.00;82.33
57050;BME280;42935;50.966;16.992;2023-02-04T12:27:00;103168.90;;;0.39;78.69
57050;BME280;42935;50.966;16.992;2023-02-04T12:30:06;103165.84;;;0.43;77.95
57050;BME280;42935;50.966;16.992;2023-02-04T12:33:14;103172.45;;;0.10;75.51
57050;BME280;42935;50.966;16.992;2023-02-04T12:36:21;103179.20;;;-0.01;75.05
57050;BME280;42935;50.966;16.992;2023-02-04T12:39:33;103183.23;;;-0.02;75.13
57050;BME280;42935;50.966;16.992;2023-02-04T12:42:38;103171.98;;;-0.16;74.07
57050;BME280;42935;50.966;16.992;2023-02-04T12:45:45;103176.02;;;-0.14;75.27
57050;BME280;42935;50.966;16.992;2023-02-04T12:48:54;103173.74;;;-0.17;75.88
57050;BME280;42935;50.966;16.992;2023-02-04T12:52:05;103170.95;;;-0.13;75.99
57050;BME280;42935;50.966;16.992;2023-02-04T12:55:09;103178.00;;;-0.04;76.58
57050;BME280;42935;50.966;16.992;2023-02-04T12:58:14;103185.06;;;0.69;77.35
57050;BME280;42935;50.966;16.992;2023-02-04T13:01:27;103162.54;;;1.14;75.66
57050;BME280;42935;50.966;16.992;2023-02-04T13:04:37;103180.93;;;1.12;73.24
57050;BME280;42935;50.966;16.992;2023-02-04T13:07:45;103174.28;;;0.56;72.93
57050;BME280;42935;50.966;16.992;2023-02-04T13:10:50;103177.30;;;0.52;73.86
57050;BME280;42935;50.966;16.992;2023-02-04T13:14:00;103186.98;;;0.42;74.01
57050;BME280;42935;50.966;16.992;2023-02-04T13:17:10;103198.56;;;0.45;72.91
57050;BME280;42935;50.966;16.992;2023-02-04T13:20:16;103200.05;;;0.55;73.56
57050;BME280;42935;50.966;16.992;2023-02-04T13:23:26;103197.00;;;0.48;73.61
57050;BME280;42935;50.966;16.992;2023-02-04T13:26:31;103211.95;;;0.36;73.45
57050;BME280;42935;50.966;16.992;2023-02-04T13:29:44;103210.87;;;0.52;75.34
57050;BME280;42935;50.966;16.992;2023-02-04T13:32:49;103209.94;;;0.47;76.66
57050;BME280;42935;50.966;16.992;2023-02-04T13:35:54;103190.45;;;0.01;76.81
57050;BME280;42935;50.966;16.992;2023-02-04T13:39:05;103211.48;;;-0.06;77.98
57050;BME280;42935;50.966;16.992;2023-02-04T13:42:25;103190.92;;;-0.14;78.99
57050;BME280;42935;50.966;16.992;2023-02-04T13:45:35;103209.78;;;-0.04;76.55
57050;BME280;42935;50.966;16.992;2023-02-04T13:48:51;103211.09;;;-0.10;77.97
57050;BME280;42935;50.966;16.992;2023-02-04T13:52:00;103228.05;;;-0.02;80.43
57050;BME280;42935;50.966;16.992;2023-02-04T13:55:13;103212.54;;;-0.22;80.47
57050;BME280;42935;50.966;16.992;2023-02-04T13:58:18;103205.03;;;-0.28;81.32
57050;BME280;42935;50.966;16.992;2023-02-04T14:01:25;103243.64;;;-0.07;82.89
57050;BME280;42935;50.966;16.992;2023-02-04T14:04:31;103240.14;;;-0.22;84.35
57050;BME280;42935;50.966;16.992;2023-02-04T14:07:39;103244.69;;;-0.22;84.58
57050;BME280;42935;50.966;16.992;2023-02-04T14:10:49;103243.34;;;-0.21;86.42
57050;BME280;42935;50.966;16.992;2023-02-04T14:14:04;103244.31;;;-0.19;85.18
57050;BME280;42935;50.966;16.992;2023-02-04T14:17:18;103251.43;;;-0.23;84.15
57050;BME280;42935;50.966;16.992;2023-02-04T14:20:27;103217.45;;;-0.39;84.01
57050;BME280;42935;50.966;16.992;2023-02-04T14:23:43;103260.51;;;-0.23;83.66
57050;BME280;42935;50.966;16.992;2023-02-04T14:26:54;103262.61;;;-0.23;82.93
57050;BME280;42935;50.966;16.992;2023-02-04T14:30:04;103252.30;;;-0.36;85.08
57050;BME280;42935;50.966;16.992;2023-02-04T14:33:13;103262.89;;;-0.37;84.88
57050;BME280;42935;50.966;16.992;2023-02-04T14:36:24;103250.39;;;-0.50;84.88
57050;BME280;42935;50.966;16.992;2023-02-04T14:39:33;103253.89;;;-0.53;84.98
57050;BME280;42935;50.966;16.992;2023-02-04T14:42:42;103253.53;;;-0.60;87.05
57050;BME280;42935;50.966;16.992;2023-02-04T14:45:49;103247.42;;;-0.73;92.15
57050;BME280;42935;50.966;16.992;2023-02-04T14:48:58;103269.38;;;-0.64;93.79
57050;BME280;42935;50.966;16.992;2023-02-04T14:52:07;103257.07;;;-0.77;95.92
57050;BME280;42935;50.966;16.992;2023-02-04T14:55:16;103282.27;;;-0.77;95.78
57050;BME280;42935;50.966;16.992;2023-02-04T14:58:22;103290.33;;;-1.44;100.00
57050;BME280;42935;50.966;16.992;2023-02-04T15:01:32;103294.31;;;-1.63;100.00
57050;BME280;42935;50.966;16.992;2023-02-04T15:04:45;103297.12;;;-1.65;100.00
57050;BME280;42935;50.966;16.992;2023-02-04T15:07:53;103296.38;;;-1.60;100.00
57050;BME280;42935;50.966;16.992;2023-02-04T15:11:00;103295.27;;;-1.52;100.00
57050;BME280;42935;50.966;16.992;2023-02-04T15:14:05;103295.85;;;-1.46;100.00
57050;BME280;42935;50.966;16.992;2023-02-04T15:17:12;103299.56;;;-1.40;100.00
57050;BME280;42935;50.966;16.992;2023-02-04T15:20:21;103297.34;;;-1.34;100.00
57050;BME280;42935;50.966;16.992;2023-02-04T15:23:32;103296.95;;;-1.44;100.00
57050;BME280;42935;50.966;16.992;2023-02-04T15:26:42;103282.40;;;-1.48;100.00
57050;BME280;42935;50.966;16.992;2023-02-04T15:29:50;103291.25;;;-1.41;100.00
57050;BME280;42935;50.966;16.992;2023-02-04T15:32:54;103291.17;;;-1.43;100.00
57050;BME280;42935;50.966;16.992;2023-02-04T15:36:01;103287.13;;;-1.50;100.00
57050;BME280;42935;50.966;16.992;2023-02-04T15:39:08;103308.47;;;-1.37;100.00
57050;BME280;42935;50.966;16.992;2023-02-04T15:42:13;103305.95;;;-1.40;100.00
57050;BME280;42935;50.966;16.992;2023-02-04T15:45:23;103296.30;;;-1.42;100.00
57050;BME280;42935;50.966;16.992;2023-02-04T15:48:30;103309.29;;;-1.34;100.00
57050;BME280;42935;50.966;16.992;2023-02-04T15:51:37;103305.19;;;-1.38;100.00
57050;BME280;42935;50.966;16.992;2023-02-04T15:54:44;103304.12;;;-1.38;100.00
57050;BME280;42935;50.966;16.992;2023-02-04T15:57:57;103319.83;;;-1.25;100.00
57050;BME280;42935;50.966;16.992;2023-02-04T16:01:10;103328.73;;;-1.30;100.00
57050;BME280;42935;50.966;16.992;2023-02-04T16:04:30;103335.13;;;-1.40;100.00
57050;BME280;42935;50.966;16.992;2023-02-04T16:07:43;103330.04;;;-1.46;100.00
57050;BME280;42935;50.966;16.992;2023-02-04T16:10:50;103313.13;;;-1.69;100.00
57050;BME280;42935;50.966;16.992;2023-02-04T16:13:56;103315.05;;;-1.61;100.00
57050;BME280;42935;50.966;16.992;2023-02-04T16:17:05;103331.05;;;-1.62;100.00
57050;BME280;42935;50.966;16.992;2023-02-04T16:20:14;103334.07;;;-1.66;100.00
57050;BME280;42935;50.966;16.992;2023-02-04T16:23:18;103335.50;;;-1.62;100.00
57050;BME280;42935;50.966;16.992;2023-02-04T16:26:27;103336.22;;;-1.56;100.00
57050;BME280;42935;50.966;16.992;2023-02-04T16:29:39;103339.15;;;-1.51;100.00
57050;BME280;42935;50.966;16.992;2023-02-04T16:32:45;103325.04;;;-1.63;100.00
57050;BME280;42935;50.966;16.992;2023-02-04T16:36:02;103333.64;;;-1.61;100.00
57050;BME280;42935;50.966;16.992;2023-02-04T16:39:09;103344.08;;;-1.63;100.00